Time;durP1;ratioP1;P1;durP2;ratioP2;P2;SDS_P1;SDS_P2;PMS_P1;PMS_P2;Temp;Humidity;BMP_temperature;BMP_pressure;BME280_temperature;BME280_humidity;BME280_pressure;Samples;Min_cycle;Max_cycle;Signal;HPM_P1;HPM_P2
2022/05/21 00:01:08;;;;;;;5.60;3.50;;;18.00;99.90;;;;;;5056756;28;20440;-78
2022/05/21 00:03:56;;;;;;;7.33;4.40;;;18.00;99.90;;;;;;5050900;28;20451;-76
2022/05/21 00:06:42;;;;;;;5.40;3.53;;;17.80;99.90;;;;;;5046366;28;21024;-78
2022/05/21 00:09:28;;;;;;;6.90;3.37;;;17.80;99.90;;;;;;5055738;28;20443;-78
2022/05/21 00:12:14;;;;;;;6.10;3.70;;;17.70;99.90;;;;;;5054065;28;20435;-78
2022/05/21 00:14:59;;;;;;;6.70;3.33;;;17.50;99.90;;;;;;5047639;28;20474;-78
2022/05/21 00:17:45;;;;;;;8.40;3.60;;;17.60;99.90;;;;;;5059294;28;20470;-77
2022/05/21 00:20:51;;;;;;;5.27;3.63;;;17.60;99.90;;;;;;5052938;28;20440;-76
2022/05/21 00:23:37;;;;;;;5.90;3.17;;;17.40;99.90;;;;;;5045215;28;20452;-76
2022/05/21 00:26:23;;;;;;;9.87;4.20;;;17.40;99.90;;;;;;5050910;28;20521;-77
2022/05/21 00:29:08;;;;;;;5.53;3.03;;;17.10;99.90;;;;;;5051018;28;20953;-77
2022/05/21 00:31:54;;;;;;;5.57;3.13;;;17.10;99.90;;;;;;5049837;28;20451;-78
2022/05/21 00:34:40;;;;;;;4.20;3.30;;;17.00;99.90;;;;;;5048940;28;20885;-77
2022/05/21 00:37:27;;;;;;;5.87;3.80;;;17.10;99.90;;;;;;5052464;28;20458;-77
2022/05/21 00:40:13;;;;;;;5.67;4.03;;;17.10;99.90;;;;;;5053802;28;20822;-77
2022/05/21 00:42:59;;;;;;;8.50;3.87;;;17.00;99.90;;;;;;5052501;28;20467;-78
2022/05/21 00:45:45;;;;;;;4.67;3.67;;;17.10;99.90;;;;;;5048526;28;20451;-77
2022/05/21 00:48:31;;;;;;;3.77;2.80;;;17.00;99.90;;;;;;5054501;28;20440;-78
2022/05/21 00:51:21;;;;;;;7.60;3.40;;;16.90;99.90;;;;;;5053548;28;20813;-77
2022/05/21 00:54:09;;;;;;;3.00;2.63;;;16.80;99.90;;;;;;5045061;28;20552;-77
2022/05/21 00:56:58;;;;;;;4.17;3.00;;;16.80;99.90;;;;;;5051471;28;20834;-77
2022/05/21 00:59:48;;;;;;;9.90;3.10;;;16.80;99.90;;;;;;5055192;28;20815;-77
2022/05/21 01:02:37;;;;;;;4.03;3.17;;;16.80;99.90;;;;;;5053166;28;20469;-77
2022/05/21 01:05:26;;;;;;;6.70;2.67;;;16.70;99.90;;;;;;5047422;28;21006;-77
2022/05/21 01:08:12;;;;;;;3.40;2.20;;;16.80;99.90;;;;;;5049689;28;20817;-76
2022/05/21 01:11:02;;;;;;;6.00;2.77;;;16.50;99.90;;;;;;5049815;28;20447;-77
2022/05/21 01:13:50;;;;;;;3.77;2.50;;;16.30;99.90;;;;;;5048709;28;20990;-78
2022/05/21 01:16:37;;;;;;;3.67;2.20;;;16.20;99.90;;;;;;5053297;28;20454;-78
2022/05/21 01:19:23;;;;;;;3.83;2.43;;;16.20;99.90;;;;;;5053084;28;20455;-77
2022/05/21 01:22:08;;;;;;;6.10;2.20;;;16.00;99.90;;;;;;5051269;28;20519;-76
2022/05/21 01:24:55;;;;;;;4.93;2.40;;;16.00;99.90;;;;;;5052072;28;20927;-78
2022/05/21 01:27:42;;;;;;;8.43;2.37;;;16.00;99.90;;;;;;5058637;28;20460;-77
2022/05/21 01:30:32;;;;;;;3.10;2.30;;;15.80;99.90;;;;;;5056251;28;20642;-78
2022/05/21 01:33:21;;;;;;;4.03;2.60;;;15.80;99.90;;;;;;5051495;28;20939;-76
2022/05/21 01:36:08;;;;;;;2.97;2.53;;;15.80;99.90;;;;;;5050757;28;20465;-77
2022/05/21 01:38:54;;;;;;;4.40;2.50;;;15.70;99.90;;;;;;5050455;28;20972;-77
2022/05/21 01:41:44;;;;;;;7.77;2.60;;;15.60;99.90;;;;;;5051583;28;20463;-76
2022/05/21 01:44:40;;;;;;;4.57;2.60;;;15.50;99.90;;;;;;5051243;28;20447;-76
2022/05/21 01:47:26;;;;;;;2.70;2.07;;;15.60;99.90;;;;;;5060803;28;20497;-76
2022/05/21 01:50:11;;;;;;;8.73;2.87;;;15.80;99.90;;;;;;5055798;28;20964;-77
2022/05/21 01:52:58;;;;;;;3.90;2.97;;;15.90;99.90;;;;;;5055613;28;20973;-76
2022/05/21 01:55:44;;;;;;;5.60;2.87;;;16.00;99.90;;;;;;5060274;28;20436;-78
2022/05/21 01:58:31;;;;;;;5.13;3.40;;;15.90;99.90;;;;;;5062670;28;20447;-78
2022/05/21 02:01:17;;;;;;;4.20;3.30;;;15.70;99.90;;;;;;5058570;28;20442;-78
2022/05/21 02:04:03;;;;;;;5.60;2.87;;;15.80;99.90;;;;;;5050839;28;20553;-76
2022/05/21 02:06:49;;;;;;;5.40;2.67;;;15.90;99.90;;;;;;5058565;28;20475;-77
2022/05/21 02:09:35;;;;;;;4.20;2.83;;;15.90;99.90;;;;;;5057751;28;20524;-77
2022/05/21 02:12:21;;;;;;;4.33;3.57;;;15.80;99.90;;;;;;5053796;28;20454;-78
2022/05/21 02:15:09;;;;;;;4.50;2.63;;;15.60;99.90;;;;;;5052670;28;20590;-77
2022/05/21 02:17:55;;;;;;;6.03;3.00;;;15.70;99.90;;;;;;5065322;28;20510;-77
2022/05/21 02:20:40;;;;;;;6.00;3.43;;;15.60;99.90;;;;;;5055815;28;20531;-78
2022/05/21 02:23:26;;;;;;;3.67;3.00;;;15.50;99.90;;;;;;5050014;28;20465;-77
2022/05/21 02:26:12;;;;;;;8.90;3.03;;;15.60;99.90;;;;;;5057145;28;20814;-78
2022/05/21 02:28:57;;;;;;;4.67;3.43;;;15.50;99.90;;;;;;5061094;28;20450;-76
2022/05/21 02:31:44;;;;;;;8.13;2.87;;;15.60;99.90;;;;;;5055628;28;20443;-76
2022/05/21 02:34:30;;;;;;;4.90;3.00;;;15.90;99.90;;;;;;5050670;28;20510;-76
2022/05/21 02:40:20;;;;;;;3.77;2.60;;;15.90;99.90;;;;;;5054122;28;20521;-76
2022/05/21 02:43:05;;;;;;;3.60;2.80;;;16.00;99.90;;;;;;5045239;28;20483;-77
2022/05/21 02:45:51;;;;;;;3.93;2.70;;;15.80;99.90;;;;;;5057540;28;20504;-77
2022/05/21 02:48:38;;;;;;;4.57;3.23;;;15.80;99.90;;;;;;5055577;28;20468;-78
2022/05/21 02:51:24;;;;;;;4.20;3.27;;;15.60;99.90;;;;;;5052242;28;20503;-78
2022/05/21 02:54:14;;;;;;;3.83;3.20;;;15.40;99.90;;;;;;5050056;28;20487;-77
2022/05/21 02:56:59;;;;;;;4.07;2.80;;;15.30;99.90;;;;;;5063811;28;20463;-77
2022/05/21 02:59:48;;;;;;;3.57;2.97;;;15.30;99.90;;;;;;5059293;28;20462;-77
2022/05/21 03:02:34;;;;;;;3.60;2.20;;;15.20;99.90;;;;;;5051422;28;20476;-78
2022/05/21 03:05:21;;;;;;;3.77;3.10;;;15.10;99.90;;;;;;5053575;28;20455;-77
2022/05/21 03:11:07;;;;;;;3.63;2.60;;;14.90;99.90;;;;;;5054815;28;20524;-77
2022/05/21 03:13:52;;;;;;;3.87;2.87;;;14.80;99.90;;;;;;5053704;28;20438;-76
2022/05/21 03:16:38;;;;;;;5.00;2.70;;;14.80;99.90;;;;;;5053139;28;20454;-77
2022/05/21 03:19:23;;;;;;;4.57;2.60;;;14.70;99.90;;;;;;5054394;28;20762;-77
2022/05/21 03:22:10;;;;;;;8.63;2.70;;;14.80;99.90;;;;;;5043972;28;20563;-77
2022/05/21 03:24:56;;;;;;;3.60;2.50;;;14.70;99.90;;;;;;5053005;28;20453;-77
2022/05/21 03:27:42;;;;;;;3.00;2.40;;;14.70;99.90;;;;;;5064529;28;20491;-78
2022/05/21 03:30:30;;;;;;;6.60;2.53;;;14.70;99.90;;;;;;5054018;28;20435;-77
2022/05/21 03:33:16;;;;;;;3.83;3.00;;;14.70;99.90;;;;;;5047005;28;20455;-76
2022/05/21 03:36:01;;;;;;;3.57;2.80;;;14.70;99.90;;;;;;5049972;28;20438;-76
2022/05/21 03:38:49;;;;;;;3.70;2.97;;;14.50;99.90;;;;;;5050364;28;20458;-77
2022/05/21 03:41:36;;;;;;;4.13;3.13;;;14.40;99.90;;;;;;5047057;28;20464;-77
2022/05/21 03:44:22;;;;;;;7.10;2.93;;;14.30;99.90;;;;;;5053444;28;20435;-77
2022/05/21 03:47:08;;;;;;;4.07;2.77;;;14.20;99.90;;;;;;5061037;28;20525;-76
2022/05/21 03:49:54;;;;;;;8.10;2.80;;;14.10;99.90;;;;;;5056189;28;20824;-77
2022/05/21 03:52:39;;;;;;;4.80;2.40;;;14.20;99.90;;;;;;5046975;28;20467;-75
2022/05/21 03:55:27;;;;;;;4.07;2.90;;;14.10;99.90;;;;;;5055434;28;20446;-76
2022/05/21 03:58:12;;;;;;;7.50;3.10;;;14.20;99.90;;;;;;5053665;28;20462;-76
2022/05/21 04:00:58;;;;;;;4.73;2.80;;;14.00;99.90;;;;;;5057435;28;20513;-75
2022/05/21 04:03:44;;;;;;;4.53;3.23;;;13.90;99.90;;;;;;5052339;28;20467;-76
2022/05/21 04:06:30;;;;;;;7.80;3.13;;;13.90;99.90;;;;;;5052482;28;21087;-76
2022/05/21 04:09:15;;;;;;;6.53;3.00;;;13.80;99.90;;;;;;5051725;28;21023;-77
2022/05/21 04:12:04;;;;;;;6.93;3.33;;;13.90;99.90;;;;;;5046278;28;20544;-75
2022/05/21 04:14:50;;;;;;;6.23;3.70;;;14.00;99.90;;;;;;5049949;28;20443;-78
2022/05/21 04:17:35;;;;;;;4.60;2.60;;;14.00;99.90;;;;;;5052301;28;20540;-76
2022/05/21 04:20:23;;;;;;;5.03;3.20;;;14.00;99.90;;;;;;5057328;28;20943;-76
2022/05/21 04:23:08;;;;;;;3.70;2.90;;;14.10;99.90;;;;;;5049418;28;20563;-75
2022/05/21 04:25:54;;;;;;;5.20;2.90;;;14.20;99.90;;;;;;5056640;28;20435;-77
2022/05/21 04:28:41;;;;;;;3.87;2.83;;;14.30;99.90;;;;;;5054350;28;20414;-76
2022/05/21 04:31:27;;;;;;;6.37;3.40;;;14.40;99.90;;;;;;5048853;28;20431;-75
2022/05/21 04:34:13;;;;;;;4.00;2.97;;;14.50;99.90;;;;;;5051320;28;20446;-76
2022/05/21 04:36:59;;;;;;;4.00;2.90;;;14.50;99.90;;;;;;5051439;28;20487;-76
2022/05/21 04:39:44;;;;;;;4.30;3.30;;;14.60;99.90;;;;;;5059407;28;20442;-76
2022/05/21 04:42:30;;;;;;;3.37;2.80;;;14.60;99.90;;;;;;5053948;28;20458;-75
2022/05/21 04:45:17;;;;;;;5.47;3.00;;;14.60;99.90;;;;;;5054398;28;20459;-77
2022/05/21 04:48:03;;;;;;;4.90;4.30;;;14.60;99.90;;;;;;5058585;28;20462;-76
2022/05/21 04:50:49;;;;;;;6.50;3.30;;;14.70;99.90;;;;;;5041054;28;20452;-77
2022/05/21 04:53:35;;;;;;;3.77;3.03;;;14.80;99.90;;;;;;5052022;28;20487;-77
2022/05/21 04:56:21;;;;;;;5.87;3.13;;;14.90;99.90;;;;;;5053479;28;20468;-77
2022/05/21 04:59:07;;;;;;;4.20;3.20;;;15.00;99.90;;;;;;5048357;28;20586;-77
2022/05/21 05:01:54;;;;;;;5.30;3.47;;;15.10;99.90;;;;;;5048556;28;20502;-76
2022/05/21 05:04:40;;;;;;;4.83;3.40;;;15.30;99.90;;;;;;5059442;28;20449;-76
2022/05/21 05:07:25;;;;;;;3.70;2.70;;;15.30;99.90;;;;;;5053526;28;20492;-77
2022/05/21 05:10:11;;;;;;;5.00;2.33;;;15.40;99.90;;;;;;5048087;28;20431;-76
2022/05/21 05:12:57;;;;;;;4.33;3.00;;;15.30;99.90;;;;;;5046624;28;21038;-77
2022/05/21 05:15:44;;;;;;;4.33;2.93;;;15.40;99.90;;;;;;5057123;28;20439;-76
2022/05/21 05:18:31;;;;;;;4.17;2.70;;;15.40;99.90;;;;;;5054748;28;20439;-76
2022/05/21 05:21:17;;;;;;;6.50;3.40;;;15.50;99.90;;;;;;5051218;28;20520;-77
2022/05/21 05:24:03;;;;;;;4.93;3.23;;;15.60;99.90;;;;;;5053143;28;20837;-76
2022/05/21 05:26:48;;;;;;;5.67;3.27;;;15.60;99.90;;;;;;5050197;28;20490;-77
2022/05/21 05:29:34;;;;;;;4.50;2.90;;;15.70;99.90;;;;;;5055061;28;20542;-77
2022/05/21 05:32:20;;;;;;;5.97;3.27;;;15.80;99.90;;;;;;5056397;28;20785;-77
2022/05/21 05:35:08;;;;;;;5.17;3.17;;;15.70;99.90;;;;;;5048842;28;20443;-77
2022/05/21 05:37:54;;;;;;;4.77;3.00;;;15.80;99.90;;;;;;5050888;28;20461;-77
2022/05/21 05:40:42;;;;;;;5.00;3.20;;;16.00;99.90;;;;;;5049264;28;20829;-77
2022/05/21 05:43:28;;;;;;;3.17;2.40;;;16.20;99.90;;;;;;5054130;28;21004;-77
2022/05/21 05:46:14;;;;;;;4.80;2.90;;;16.10;99.90;;;;;;5055296;28;20470;-77
2022/05/21 05:48:59;;;;;;;5.57;3.20;;;16.20;99.90;;;;;;5052236;28;20593;-76
2022/05/21 05:51:46;;;;;;;4.47;2.70;;;16.10;99.90;;;;;;5053429;28;20494;-76
2022/05/21 05:54:34;;;;;;;5.33;2.57;;;16.10;99.90;;;;;;5055532;28;20438;-78
2022/05/21 05:57:20;;;;;;;2.90;2.10;;;16.10;99.90;;;;;;5052764;28;20552;-75
2022/05/21 06:00:06;;;;;;;3.50;1.90;;;16.30;99.90;;;;;;5045936;28;20463;-76
2022/05/21 06:03:01;;;;;;;4.67;2.00;;;16.40;99.90;;;;;;5054249;28;20486;-75
2022/05/21 06:05:49;;;;;;;2.80;2.00;;;16.50;99.90;;;;;;5058624;28;20450;-76
2022/05/21 06:08:36;;;;;;;3.93;1.93;;;16.40;99.90;;;;;;5055717;28;20565;-74
2022/05/21 06:11:21;;;;;;;4.03;2.10;;;16.50;99.90;;;;;;5052964;28;20519;-76
2022/05/21 06:14:09;;;;;;;5.37;2.00;;;16.60;99.90;;;;;;5057326;28;21038;-77
2022/05/21 06:16:55;;;;;;;4.07;2.57;;;16.60;99.90;;;;;;5049511;28;20911;-78
2022/05/21 06:19:41;;;;;;;3.63;1.80;;;16.50;99.90;;;;;;5049698;28;20447;-76
2022/05/21 06:22:29;;;;;;;4.10;1.83;;;16.50;99.90;;;;;;5049321;28;20444;-77
2022/05/21 06:25:18;;;;;;;2.77;1.70;;;16.50;99.90;;;;;;5052553;28;20444;-78
2022/05/21 06:28:05;;;;;;;3.70;1.90;;;16.70;99.90;;;;;;5050394;28;20594;-77
2022/05/21 06:30:51;;;;;;;2.73;1.60;;;16.70;99.90;;;;;;5051582;28;20928;-76
2022/05/21 06:33:36;;;;;;;3.47;1.70;;;16.70;99.30;;;;;;5051898;28;20768;-77
2022/05/21 06:36:23;;;;;;;3.53;1.87;;;16.70;99.90;;;;;;5052717;28;20469;-77
2022/05/21 06:39:09;;;;;;;9.03;1.60;;;16.70;97.80;;;;;;5047513;28;20559;-76
2022/05/21 06:41:56;;;;;;;2.60;1.27;;;16.70;97.70;;;;;;5054501;28;20486;-78
2022/05/21 06:44:42;;;;;;;3.70;1.20;;;16.50;96.30;;;;;;5053818;28;20805;-76
2022/05/21 06:47:28;;;;;;;9.07;1.67;;;16.40;97.60;;;;;;5054743;28;21173;-77
2022/05/21 06:50:14;;;;;;;6.30;1.90;;;16.30;97.60;;;;;;5049111;28;20510;-77
2022/05/21 06:52:59;;;;;;;3.90;1.30;;;16.20;97.40;;;;;;5053589;28;20578;-76
2022/05/21 06:55:45;;;;;;;4.40;1.33;;;16.30;99.60;;;;;;5059316;28;20784;-77
2022/05/21 06:58:32;;;;;;;2.73;1.30;;;16.20;98.10;;;;;;5048011;28;20425;-77
2022/05/21 07:01:17;;;;;;;6.27;1.60;;;16.20;98.30;;;;;;5052105;28;20449;-76
2022/05/21 07:04:04;;;;;;;3.63;1.57;;;16.20;98.60;;;;;;5053672;28;20839;-76
2022/05/21 07:09:52;;;;;;;4.00;1.57;;;16.40;99.90;;;;;;5046648;28;20451;-77
2022/05/21 07:12:38;;;;;;;5.17;1.30;;;16.30;99.40;;;;;;5053321;28;20459;-78
2022/05/21 07:15:26;;;;;;;3.20;1.37;;;16.40;99.90;;;;;;5048291;28;20808;-76
2022/05/21 07:18:12;;;;;;;3.63;1.33;;;16.50;99.80;;;;;;5046124;28;20606;-77
2022/05/21 07:20:58;;;;;;;5.47;1.60;;;16.60;99.20;;;;;;5047949;28;20521;-76
2022/05/21 07:23:44;;;;;;;4.03;1.20;;;16.80;98.30;;;;;;5048962;28;20475;-76
2022/05/21 07:26:30;;;;;;;5.97;1.47;;;16.70;96.30;;;;;;5048519;28;20553;-76
2022/05/21 07:29:16;;;;;;;5.13;1.30;;;16.50;96.80;;;;;;5046212;28;20533;-77
2022/05/21 07:32:04;;;;;;;8.33;2.03;;;16.40;96.80;;;;;;5058497;28;20409;-77
2022/05/21 07:34:56;;;;;;;12.10;1.83;;;16.50;97.50;;;;;;5047474;28;20502;-77
2022/05/21 07:37:42;;;;;;;4.60;1.70;;;16.60;96.80;;;;;;5047588;28;20832;-77
2022/05/21 07:40:28;;;;;;;6.77;1.70;;;16.50;95.80;;;;;;5051705;28;20878;-77
2022/05/21 07:43:16;;;;;;;5.40;1.87;;;16.30;97.30;;;;;;5048632;28;20451;-77
2022/05/21 07:46:02;;;;;;;2.43;1.20;;;16.30;97.80;;;;;;5046879;28;20548;-76
2022/05/21 07:48:49;;;;;;;3.10;1.63;;;16.40;99.40;;;;;;5045013;28;20451;-77
2022/05/21 07:51:35;;;;;;;9.90;2.00;;;16.50;98.70;;;;;;5045889;28;20815;-76
2022/05/21 07:54:21;;;;;;;6.50;1.50;;;16.50;96.60;;;;;;5046509;28;20463;-77
2022/05/21 07:57:06;;;;;;;8.60;1.70;;;16.50;96.80;;;;;;5045570;28;21044;-76
2022/05/21 07:59:52;;;;;;;3.27;1.90;;;16.60;96.30;;;;;;5052379;28;20839;-76
2022/05/21 08:02:42;;;;;;;9.37;1.37;;;16.80;97.00;;;;;;5048985;28;20450;-75
2022/05/21 08:05:29;;;;;;;5.77;1.63;;;16.90;95.00;;;;;;5048627;28;20458;-76
2022/05/21 08:08:14;;;;;;;3.73;1.37;;;16.60;95.60;;;;;;5043486;28;20451;-77
2022/05/21 08:11:00;;;;;;;4.27;1.40;;;16.50;96.90;;;;;;5050885;28;20446;-77
2022/05/21 08:13:45;;;;;;;4.00;1.80;;;16.50;97.40;;;;;;5056037;28;20436;-77
2022/05/21 08:16:31;;;;;;;4.20;1.30;;;16.40;96.90;;;;;;5057725;28;20996;-77
2022/05/21 08:19:17;;;;;;;5.50;1.50;;;16.60;97.60;;;;;;5046165;28;20907;-77
2022/05/21 08:28:13;;;;;;;2.60;1.40;;;17.00;97.30;;;;;;5043065;28;21023;-77
2022/05/21 08:30:59;;;;;;;7.63;1.90;;;17.20;96.80;;;;;;5052900;28;20772;-77
2022/05/21 08:33:45;;;;;;;3.27;1.30;;;17.10;95.80;;;;;;5058523;28;20442;-77
2022/05/21 08:36:31;;;;;;;7.20;2.70;;;17.10;96.00;;;;;;5052223;28;20468;-77
2022/05/21 08:39:19;;;;;;;19.20;2.63;;;17.20;96.60;;;;;;5048371;28;20821;-77
2022/05/21 08:42:11;;;;;;;3.93;1.37;;;17.20;94.70;;;;;;5050398;28;20741;-78
2022/05/21 08:45:08;;;;;;;6.13;1.40;;;17.10;94.70;;;;;;5049361;28;20998;-77
2022/05/21 08:48:00;;;;;;;4.87;1.50;;;17.10;91.90;;;;;;5051628;28;20525;-77
2022/05/21 08:50:50;;;;;;;3.30;1.30;;;17.10;92.90;;;;;;5054770;28;20447;-77
2022/05/21 08:53:44;;;;;;;6.20;1.83;;;17.10;92.00;;;;;;5047244;28;20512;-77
2022/05/21 08:56:32;;;;;;;13.03;1.60;;;17.40;93.40;;;;;;5045192;28;20870;-78
2022/05/21 08:59:23;;;;;;;10.03;1.50;;;17.70;92.10;;;;;;5045868;28;20668;-77
2022/05/21 09:02:14;;;;;;;4.83;1.80;;;17.90;90.60;;;;;;5045895;28;20538;-78
2022/05/21 09:05:01;;;;;;;7.47;1.60;;;17.90;82.20;;;;;;5043059;28;20463;-77
2022/05/21 09:07:57;;;;;;;5.13;1.30;;;17.90;82.20;;;;;;5044793;28;21086;-77
2022/05/21 09:10:52;;;;;;;4.20;1.63;;;18.00;82.50;;;;;;5046980;28;20581;-77
2022/05/21 09:13:44;;;;;;;3.57;1.70;;;18.00;79.10;;;;;;5049885;28;20451;-77
2022/05/21 09:19:50;;;;;;;5.07;1.50;;;18.30;77.90;;;;;;5014525;28;20451;-78
2022/05/21 09:22:36;;;;;;;5.20;1.60;;;18.40;72.00;;;;;;5047238;28;20447;-77
2022/05/21 09:25:26;;;;;;;5.90;1.40;;;18.60;77.40;;;;;;5049295;28;20486;-76
2022/05/21 09:28:12;;;;;;;6.30;2.03;;;18.80;73.60;;;;;;5048146;28;20459;-77
2022/05/21 09:31:00;;;;;;;3.77;1.70;;;18.60;70.10;;;;;;5043065;28;20447;-78
2022/05/21 09:33:46;;;;;;;6.20;2.07;;;18.80;72.20;;;;;;5056591;28;20439;-79
2022/05/21 09:36:35;;;;;;;5.07;1.40;;;19.00;73.80;;;;;;5053052;28;20467;-77
2022/05/21 09:39:31;;;;;;;3.30;1.57;;;18.90;69.90;;;;;;5053001;28;20446;-77
2022/05/21 09:45:32;;;;;;;6.07;1.97;;;18.80;67.70;;;;;;5051409;28;21027;-77
2022/05/21 09:48:22;;;;;;;5.93;1.70;;;18.80;69.40;;;;;;5048424;28;20514;-78
2022/05/21 09:51:21;;;;;;;4.90;1.87;;;18.90;72.10;;;;;;5050284;28;20474;-77
2022/05/21 09:54:20;;;;;;;6.40;1.97;;;19.10;69.80;;;;;;5056970;28;21076;-77
2022/05/21 09:57:07;;;;;;;4.70;1.80;;;19.40;68.40;;;;;;5043692;28;20491;-77
2022/05/21 10:00:06;;;;;;;5.57;1.70;;;19.50;69.00;;;;;;5061394;28;20533;-77
2022/05/21 10:02:54;;;;;;;3.43;1.27;;;19.20;65.00;;;;;;5062066;28;20438;-77
2022/05/21 10:05:46;;;;;;;3.70;1.60;;;19.10;65.80;;;;;;5053067;28;20618;-77
2022/05/21 10:11:47;;;;;;;5.93;1.63;;;18.90;65.00;;;;;;5045450;28;20528;-75
2022/05/21 10:14:36;;;;;;;3.43;1.40;;;19.00;66.80;;;;;;5039241;28;20455;-75
2022/05/21 10:17:28;;;;;;;5.33;1.70;;;18.90;62.60;;;;;;5048046;28;21015;-75
2022/05/21 10:20:20;;;;;;;6.07;1.80;;;18.80;62.60;;;;;;5039874;28;20512;-75
2022/05/21 10:23:12;;;;;;;6.10;1.83;;;18.60;65.30;;;;;;5042828;28;20449;-75
2022/05/21 10:26:10;;;;;;;3.30;1.37;;;18.60;66.00;;;;;;5038267;28;20479;-75
2022/05/21 10:29:07;;;;;;;3.80;1.50;;;18.80;64.10;;;;;;5043537;28;20563;-75
2022/05/21 10:32:01;;;;;;;12.97;2.10;;;19.10;62.80;;;;;;5049597;28;20451;-75
2022/05/21 10:34:59;;;;;;;5.97;1.40;;;19.30;63.50;;;;;;5042170;28;20482;-75
2022/05/21 10:37:57;;;;;;;3.67;1.70;;;19.40;61.60;;;;;;5050966;28;20448;-75
2022/05/21 10:40:51;;;;;;;5.17;1.43;;;19.50;59.50;;;;;;5050322;28;20591;-75
2022/05/21 10:44:08;;;;;;;3.00;1.40;;;19.60;60.50;;;;;;5046168;28;20455;-75
2022/05/21 10:47:02;;;;;;;10.77;1.80;;;19.80;58.30;;;;;;5051221;28;20462;-75
2022/05/21 10:50:19;;;;;;;2.40;1.10;;;19.60;55.90;;;;;;5060169;28;20435;-75
2022/05/21 10:53:33;;;;;;;2.63;1.27;;;19.40;56.60;;;;;;5043006;28;20462;-75
2022/05/21 10:56:36;;;;;;;4.40;1.27;;;19.50;59.20;;;;;;5032929;28;20476;-75
2022/05/21 10:59:37;;;;;;;10.13;1.50;;;19.40;56.90;;;;;;5037841;28;20428;-75
2022/05/21 11:02:53;;;;;;;5.10;1.93;;;19.50;59.00;;;;;;5044758;28;20422;-75
2022/05/21 11:05:56;;;;;;;5.10;1.50;;;19.50;57.30;;;;;;5039344;28;20464;-75
2022/05/21 11:08:53;;;;;;;3.87;1.90;;;19.50;57.30;;;;;;5042314;28;20505;-75
2022/05/21 11:11:55;;;;;;;2.63;1.40;;;19.80;52.90;;;;;;5044752;28;20429;-75
2022/05/21 11:14:45;;;;;;;7.10;1.63;;;20.20;57.50;;;;;;5036945;28;20609;-75
2022/05/21 11:17:38;;;;;;;4.70;1.60;;;20.60;50.60;;;;;;5040055;28;20483;-75
2022/05/21 11:20:27;;;;;;;7.30;1.77;;;20.80;49.50;;;;;;5043724;28;20528;-75
2022/05/21 11:23:21;;;;;;;6.37;1.50;;;20.80;49.00;;;;;;5039713;28;20593;-75
2022/05/21 11:26:14;;;;;;;4.43;1.30;;;20.90;51.40;;;;;;5046631;28;21012;-75
2022/05/21 11:29:07;;;;;;;2.93;1.40;;;21.00;51.70;;;;;;5049146;28;20630;-75
2022/05/21 11:38:14;;;;;;;5.00;1.53;;;21.10;50.00;;;;;;5047302;28;20474;-75
2022/05/21 11:47:44;;;;;;;6.90;1.20;;;20.80;48.30;;;;;;5048890;28;20440;-75
2022/05/21 11:50:31;;;;;;;4.10;1.30;;;20.60;46.70;;;;;;5046831;28;20443;-74
2022/05/21 11:53:36;;;;;;;4.47;1.63;;;20.30;47.70;;;;;;5045990;28;20452;-75
2022/05/21 11:56:23;;;;;;;4.30;1.70;;;20.10;49.40;;;;;;5047629;28;21062;-75
2022/05/21 11:59:14;;;;;;;5.40;1.70;;;20.20;52.90;;;;;;5046314;28;20518;-75
2022/05/21 12:02:21;;;;;;;5.00;1.33;;;20.50;55.00;;;;;;5051279;28;20478;-75
2022/05/21 12:05:09;;;;;;;3.77;1.33;;;20.70;50.20;;;;;;5043516;28;20474;-77
2022/05/21 12:07:56;;;;;;;7.73;2.00;;;21.00;52.20;;;;;;5042949;28;20483;-76
2022/05/21 12:10:55;;;;;;;3.40;1.60;;;21.40;54.80;;;;;;5039735;28;20436;-76
2022/05/21 12:14:01;;;;;;;4.60;1.73;;;21.80;50.40;;;;;;5050794;28;20463;-76
2022/05/21 12:16:53;;;;;;;6.33;2.27;;;22.00;42.90;;;;;;5046299;28;20841;-76
2022/05/21 12:20:06;;;;;;;3.73;1.60;;;22.00;48.00;;;;;;5051231;28;20428;-76
2022/05/21 12:22:53;;;;;;;4.27;1.30;;;22.10;42.00;;;;;;5050062;28;20558;-75
2022/05/21 12:26:01;;;;;;;8.33;1.60;;;21.90;42.40;;;;;;5055044;28;20466;-75
2022/05/21 12:28:52;;;;;;;4.97;1.53;;;21.90;41.60;;;;;;5051048;28;20786;-75
2022/05/21 12:31:41;;;;;;;4.57;1.70;;;21.80;43.70;;;;;;5050802;28;20419;-76
2022/05/21 12:34:54;;;;;;;3.53;1.40;;;21.90;45.50;;;;;;5047939;28;20821;-76
2022/05/21 12:37:43;;;;;;;6.20;1.60;;;22.00;43.30;;;;;;5043126;28;20835;-76
2022/05/21 12:40:39;;;;;;;5.30;1.20;;;22.30;45.30;;;;;;5050080;28;20447;-76
2022/05/21 12:43:25;;;;;;;6.57;1.70;;;22.50;43.70;;;;;;5048070;28;20452;-76
2022/05/21 12:46:24;;;;;;;3.43;1.10;;;22.80;44.80;;;;;;5039214;28;20475;-76
2022/05/21 12:49:12;;;;;;;6.03;1.60;;;22.20;41.90;;;;;;5052480;28;20451;-75
2022/05/21 12:51:59;;;;;;;5.63;1.53;;;22.20;43.10;;;;;;5047657;28;20521;-76
2022/05/21 12:54:45;;;;;;;4.70;1.60;;;22.40;44.10;;;;;;5049367;28;20852;-76
2022/05/21 12:57:31;;;;;;;4.70;1.60;;;22.50;42.20;;;;;;5055252;28;20478;-75
2022/05/21 13:00:19;;;;;;;9.67;1.90;;;22.60;40.80;;;;;;5048728;28;20427;-76
2022/05/21 13:03:08;;;;;;;4.63;1.00;;;22.90;40.40;;;;;;5046516;28;20854;-75
2022/05/21 13:05:58;;;;;;;4.13;1.47;;;22.70;39.10;;;;;;5051956;28;20484;-76
2022/05/21 13:08:45;;;;;;;5.50;2.00;;;22.80;40.20;;;;;;5056860;28;20438;-76
2022/05/21 13:11:40;;;;;;;4.57;1.60;;;23.00;40.40;;;;;;5045139;28;20558;-76
2022/05/21 13:14:35;;;;;;;3.10;1.30;;;23.20;40.90;;;;;;5038563;28;20432;-76
2022/05/21 13:17:39;;;;;;;5.63;1.37;;;23.00;39.20;;;;;;5049921;28;20477;-76
2022/05/21 13:20:32;;;;;;;3.63;1.10;;;23.20;39.30;;;;;;5049055;28;20443;-76
2022/05/21 13:23:44;;;;;;;4.23;1.40;;;23.20;37.80;;;;;;5044472;28;20582;-76
2022/05/21 13:26:33;;;;;;;5.07;1.90;;;23.20;37.20;;;;;;5052513;28;20840;-76
2022/05/21 13:29:21;;;;;;;5.33;1.33;;;23.30;38.10;;;;;;5050363;28;20539;-76
2022/05/21 13:32:18;;;;;;;3.50;1.43;;;23.50;40.30;;;;;;5047191;28;20831;-76
2022/05/21 13:35:18;;;;;;;2.77;1.00;;;23.30;35.30;;;;;;5041726;28;20428;-75
2022/05/21 13:38:05;;;;;;;4.60;1.40;;;23.30;36.70;;;;;;5050122;28;20556;-74
2022/05/21 13:40:54;;;;;;;4.27;1.10;;;23.20;34.80;;;;;;5061764;28;20896;-76
2022/05/21 13:43:45;;;;;;;5.00;1.10;;;23.20;38.10;;;;;;5048060;28;20529;-76
2022/05/21 13:46:34;;;;;;;2.63;1.30;;;23.20;38.30;;;;;;5034444;28;20488;-75
2022/05/21 13:49:25;;;;;;;3.90;1.30;;;23.40;38.20;;;;;;5051358;28;20443;-76
2022/05/21 13:52:13;;;;;;;5.60;1.50;;;23.50;37.00;;;;;;5050097;28;20587;-76
2022/05/21 13:54:59;;;;;;;4.13;1.40;;;23.40;35.40;;;;;;5050549;28;20581;-76
2022/05/21 13:57:45;;;;;;;2.03;1.07;;;23.20;36.80;;;;;;5046624;28;20905;-77
2022/05/21 14:00:37;;;;;;;3.43;1.17;;;23.30;37.90;;;;;;5057260;28;20427;-77
2022/05/21 14:03:30;;;;;;;4.47;1.10;;;23.60;39.80;;;;;;5041517;28;20448;-78
2022/05/21 14:06:17;;;;;;;4.30;1.40;;;23.60;35.50;;;;;;5051870;28;20542;-77
2022/05/21 14:09:04;;;;;;;3.97;1.20;;;23.40;37.20;;;;;;5045229;28;20823;-78
2022/05/21 14:11:52;;;;;;;9.50;1.50;;;23.50;35.30;;;;;;5045723;28;20466;-78
2022/05/21 14:14:41;;;;;;;4.30;1.27;;;23.60;34.60;;;;;;5053906;28;20427;-78
2022/05/21 14:17:33;;;;;;;7.13;1.53;;;23.30;36.00;;;;;;5058497;28;20614;-77
2022/05/21 14:20:26;;;;;;;4.43;1.77;;;23.30;38.20;;;;;;5050809;28;20452;-78
2022/05/21 14:23:29;;;;;;;5.90;1.40;;;23.50;39.00;;;;;;5044999;28;21237;-76
2022/05/21 14:26:31;;;;;;;5.30;1.30;;;23.50;38.60;;;;;;5049546;28;20485;-77
2022/05/21 14:29:51;;;;;;;6.67;1.20;;;23.50;36.30;;;;;;5057237;28;20434;-76
2022/05/21 14:32:40;;;;;;;8.03;1.73;;;23.20;33.80;;;;;;4984361;28;20976;-77
2022/05/21 14:35:28;;;;;;;6.07;1.30;;;23.00;35.50;;;;;;5049531;28;20444;-77
2022/05/21 14:38:18;;;;;;;10.03;1.30;;;23.00;37.20;;;;;;5045987;28;20428;-77
2022/05/21 14:41:04;;;;;;;3.73;1.40;;;23.10;37.80;;;;;;5036050;28;20605;-76
2022/05/21 14:43:49;;;;;;;3.57;1.50;;;23.20;40.40;;;;;;5032720;28;20415;-77
2022/05/21 14:49:40;;;;;;;2.50;0.90;;;23.20;39.70;;;;;;5051483;28;20562;-77
2022/05/21 14:55:29;;;;;;;3.40;1.07;;;23.00;39.60;;;;;;5040072;28;20411;-77
2022/05/21 14:58:16;;;;;;;4.03;1.03;;;22.50;39.20;;;;;;5052149;28;20432;-77
2022/05/21 15:01:02;;;;;;;3.50;1.20;;;22.30;40.60;;;;;;5059540;28;20450;-77
2022/05/21 15:03:48;;;;;;;4.03;1.27;;;22.40;40.50;;;;;;5036204;28;20455;-77
2022/05/21 15:06:37;;;;;;;3.20;1.40;;;22.30;40.40;;;;;;5052538;28;20484;-77
2022/05/21 15:09:23;;;;;;;4.97;1.70;;;22.40;42.10;;;;;;5053181;28;20856;-77
2022/05/21 15:12:09;;;;;;;7.63;2.27;;;22.40;42.10;;;;;;5039719;28;20948;-77
2022/05/21 15:14:55;;;;;;;2.40;1.07;;;22.50;40.70;;;;;;5035949;28;20560;-77
2022/05/21 15:17:41;;;;;;;2.33;0.90;;;22.50;43.00;;;;;;5052879;28;20578;-77
2022/05/21 15:20:27;;;;;;;3.77;1.70;;;22.50;40.80;;;;;;5053410;28;20451;-76
2022/05/21 15:23:14;;;;;;;3.77;1.50;;;22.70;41.60;;;;;;5054167;28;20526;-77